Buenos Aires, Argentina
Current Conditions -  °F | °C
As of 11:00 AM on Tuesday 21 Oct 2014 (Local Time) from SABE Reporting Station
Clear Clear  
Wind Chill: 72°   Ceiling: Unl
Heat Index: 72°   Visibility: 6mi
Dew Point: 55°   Wind: 14mph
Humidity: 57%   Direction: 10°N
Pressure: 30.12"   Gusts: NA
Location:  34.61°S, 58.37°W
Report Text: SABE 211400Z 01012KT CAVOK 22/13 Q1020
Loading
Personal Weather Stations






























Interactive Weather Map
Tropical Storm Tracking
New forecast layout! Learn more

10-Day Weather Forecast

Advertisements
Track Severe Weather on mobile